Boonville Invitational 2018

Boonville, IN

Boy's Results

Boonville Pioneer Invitational
Overall Finish List
August 18, 2018
Boonville Pioneer Invitational On Target Timing
HS Boys
Place	Name	Team	Bib No	Gender	Chip Time	Gun Time	Pace
1	Mitchell Hopf	Heritage Hills	89	M	16:27.5	16:27.5	3:17/K
2	Jackson Kreig	Princeton	198	M	16:48.8	16:48.8	3:22/K
3	JOSEPH RUSSLER	Memorial	168	M	17:15.0	17:15.0	3:27/K
4	Dean Schmidt	Evansville North	292	M	17:17.2	17:17.2	3:27/K
5	Tanner Schickel	Mater Dei	41	M	17:26.4	17:26.4	3:29/K
6	Dawson Schroeder	Mater Dei	49	M	17:39.1	17:39.1	3:32/K
7	Oliver Smith	South Knox	25	M	18:18.3	18:18.3	3:40/K
8	Garrett Couchenour	South Knox	13	M	18:26.6	18:26.6	3:41/K
9	Jacob Siewers	South Knox	28	M	18:31.4	18:31.4	3:42/K
10	Alex Hooten	Central	212	M	18:34.2	18:34.2	3:43/K
11	Elliott Buechlein	Heritage Hills	92	M	18:40.8	18:40.8	3:44/K
12	Tommy Kelly	Mount Vernon	139	M	18:41.4	18:41.4	3:44/K
13	Nick Brinkman	Heritage Hills	87	M	18:47.5	18:47.5	3:45/K
14	Tyler Zimmerman	Evansville North	295	M	18:48.7	18:48.7	3:46/K
15	Trenton Faulkner	South Knox	19	M	18:54.0	18:54.0	3:47/K
16	Jordan Byrd	Evansville North	281	M	18:58.5	18:58.5	3:48/K
17	Brenden Shrode	Evansville North	293	M	18:58.5	18:58.5	3:48/K
18	Zach Laurence	Evansville North	286	M	18:59.7	18:59.7	3:48/K
19	DeAnthony Stinson	Central	215	M	19:01.9	19:01.9	3:48/K
20	CAMREN DOLLISON	Memorial	158	M	19:08.5	19:08.5	3:50/K
21	Parker Mullins	Vincennes Lincoln	107	M	19:15.7	19:15.7	3:51/K
22	Will Staggs	South Knox	26	M	19:18.9	19:18.9	3:52/K
23	Braden Dike	Mount Vernon	141	M	19:25.1	19:25.1	3:53/K
24	Dylan Hubert	Perry Central	258	M	19:25.9	19:25.9	3:53/K
25	Luke Bays	Evansville North	278	M	19:30.9	19:30.9	3:54/K
26	SEAN THOMAS	Memorial	174	M	19:31.7	19:31.7	3:54/K
27	Cooper Clark	Princeton	202	M	19:36.5	19:36.5	3:55/K
28	Spencer Brittingham	Princeton	201	M	19:36.7	19:36.7	3:55/K
29	JERETT HERR	Memorial	162	M	19:38.4	19:38.4	3:56/K
30	Lane Pollock	Boonville	237	M	19:39.9	19:39.9	3:56/K
31	Anthony Ketchem	South Knox	20	M	19:40.4	19:40.4	3:56/K
32	Cole Hess	Perry Central	263	M	19:54.4	19:54.4	3:59/K
33	Will Orth	Mater Dei	44	M	19:57.5	19:57.5	3:59/K
34	Adam Hudson	South Knox	14	M	20:00.4	20:00.4	4:00/K
35	Dilan Harbert	Evansville North	283	M	20:03.0	20:03.0	4:01/K
36	Jacob Rainey	Evansville North	291	M	20:04.1	20:04.1	4:01/K
37	Isaiah Wray	Central	217	M	20:04.7	20:04.7	4:01/K
38	Reese Perry	Bosse	309	M	20:05.2	20:05.2	4:01/K
39	Owen Wilkins	Boonville	233	M	20:06.6	20:06.6	4:01/K
40	Adam Barnes	Mater Dei	42	M	20:06.7	20:06.7	4:01/K
41	ANDREW GOLBA	Memorial	160	M	20:07.6	20:07.6	4:01/K
42	Isaac Burns	Evansville North	280	M	20:09.0	20:09.0	4:02/K
43	Damian Coalter	Heritage Hills	85	M	20:09.0	20:09.0	4:02/K
44	Cade Ott	Harrison	125	M	20:09.6	20:09.6	4:02/K
45	Jordan Hart	Harrison	122	M	20:10.0	20:10.0	4:02/K
46	Blake Fehr	Evansville North	282	M	20:10.6	20:10.6	4:02/K
47	Efrem Cundiff	Boonville	236	M	20:11.2	20:11.2	4:02/K
48	Andrew Black	South Knox	11	M	20:13.5	20:13.5	4:03/K
49	Evan Herr	Mater Dei	47	M	20:16.0	20:16.0	4:03/K
50	Danner Latshaw	Mount Vernon	137	M	20:16.7	20:16.7	4:03/K
51	Noah Glomski	Princeton	200	M	20:16.9	20:16.9	4:03/K
52	Jacob Moore	Princeton	203	M	20:19.5	20:19.5	4:04/K
53	Chase James	Perry Central	259	M	20:19.9	20:19.9	4:04/K
54	Clay Moore	Tecumseh	64	M	20:21.3	20:21.3	4:04/K
55	Abram Taylor Schroeder	Boonville	232	M	20:25.9	20:25.9	4:05/K
56	BEN SLOAN	Memorial	170	M	20:27.9	20:27.9	4:05/K
57	Elias Becerra	Washington	145	M	20:32.9	20:32.9	4:06/K
58	Cole Johnson	Perry Central	262	M	20:33.7	20:33.7	4:07/K
59	JACKSON CUTRELL	Memorial	155	M	20:35.5	20:35.5	4:07/K
60	Cole Granderson	Perry Central	264	M	20:37.2	20:37.2	4:07/K
61	Wyatt Koenig	Heritage Hills	93	M	20:39.4	20:39.4	4:08/K
62	Owen Rahman	Heritage Hills	91	M	20:40.7	20:40.7	4:08/K
63	MAESON DAMIN	Memorial	156	M	20:42.6	20:42.6	4:08/K
64	Landen Minto	Heritage Hills	95	M	20:43.0	20:43.0	4:09/K
65	Nic Hilgenhold	Perry Central	265	M	20:43.9	20:43.9	4:09/K
66	Jacob Spurling	Evansville North	294	M	20:46.6	20:46.6	4:09/K
67	Riley Basham	North Posey	223	M	20:49.5	20:49.5	4:10/K
68	Eli Wilson	Heritage Hills	94	M	20:52.6	20:52.6	4:10/K
69	Tensai Nakamura	Central	213	M	20:53.8	20:53.8	4:11/K
70	NICK FOLZ	Memorial	159	M	20:55.7	20:55.7	4:11/K
71	Keenan Clegg	Vincennes Lincoln	113	M	20:57.0	20:57.0	4:11/K
72	Jonathan Theis	Perry Central	260	M	21:02.0	21:02.0	4:12/K
73	ETHAN MEUNIER	Memorial	166	M	21:09.0	21:09.0	4:14/K
74	David Reel	South Knox	23	M	21:10.0	21:10.0	4:14/K
75	Brayden Lamey	Evansville North	284	M	21:16.0	21:16.0	4:15/K
76	Braden Henning	Mount Vernon	136	M	21:20.0	21:20.0	4:16/K
77	Lucas Washington	Heritage Hills	90	M	21:21.0	21:21.0	4:16/K
78	Blake Meade	Vincennes Lincoln	112	M	21:29.0	21:29.0	4:18/K
79	Wes Ankers	Mater Dei	50	M	21:32.0	21:32.0	4:18/K
80	Trevor Robbins	Vincennes Lincoln	108	M	21:35.0	21:35.0	4:19/K
81	Riley Holmey	Central	211	M	21:36.0	21:36.0	4:19/K
82	Nate Harris	Vincennes Lincoln	114	M	21:42.0	21:42.0	4:20/K
83	Cody Maihle	Tecumseh	61	M	21:46.0	21:46.0	4:21/K
84	Evan McGuire	Vincennes Lincoln	109	M	21:49.0	21:49.0	4:22/K
85	Joe Scheller	Mater Dei	45	M	21:51.0	21:51.0	4:22/K
86	SAM HERMANN	Memorial	161	M	21:59.0	21:59.0	4:24/K
87	Lukas Jones	Vincennes Lincoln	106	M	22:09.0	22:09.0	4:26/K
88	Roberto Dominguez	Harrison	124	M	22:11.0	22:11.0	4:26/K
89	Mitchell Wilson	Mount Vernon	138	M	22:16.0	22:16.0	4:27/K
90	Jacob Vanbibber	Mater Dei	46	M	22:18.0	22:18.0	4:28/K
91	ANDREW MITCHELL	Memorial	167	M	22:21.0	22:21.0	4:28/K
92	Jamie Born	Evansville North	279	M	22:22.0	22:22.0	4:28/K
93	Iain Girten	South Spencer	313	M	22:22.0	22:22.0	4:28/K
94	Conor Greaney	Mater Dei	51	M	22:26.0	22:26.0	4:29/K
95	Robert Vieck	South Knox	16	M	22:29.0	22:29.0	4:30/K
96	Taylor James	Perry Central	261	M	22:29.0	22:29.0	4:30/K
97	Travis Retter	Princeton	204	M	22:30.0	22:30.0	4:30/K
98	JACOB HIRSCH	Memorial	163	M	22:36.0	22:36.0	4:31/K
99	Wyatt Topper	Boonville	234	M	22:38.0	22:38.0	4:32/K
100	Brennan Sweeney	North Posey	225	M	22:40.0	22:40.0	4:32/K
 
Place	Name	Team	Bib No	Gender	Chip Time	Gun Time	Pace
101	SAM SYRONEY	Memorial	172	M	22:41.0	22:41.0	4:32/K
102	Matthew Hayden	Mater Dei	39	M	22:42.0	22:42.0	4:32/K
103	JAKE KESSLER	Memorial	165	M	22:45.0	22:45.0	4:33/K
104	Noah Blankenberger	Mater Dei	37	M	22:49.0	22:49.0	4:34/K
105	Grant Mooney	Evansville North	287	M	22:53.0	22:53.0	4:35/K
106	Owen Singleton	South Knox	24	M	22:56.0	22:56.0	4:35/K
107	Josh Melvin	South Knox	21	M	23:00.0	23:00.0	4:36/K
108	MATTHEW CLEVELAND	Memorial	154	M	23:02.0	23:02.0	4:36/K
109	PRESTON SHAKE	Memorial	169	M	23:04.0	23:04.0	4:37/K
110	Eli Wilson	Washington	148	M	23:24.0	23:24.0	4:41/K
111	Luke Lange	Vincennes Lincoln	105	M	23:32.0	23:32.0	4:42/K
112	Jason Lind	Harrison	123	M	23:32.0	23:32.0	4:42/K
113	Zach Vannice	North Posey	227	M	23:41.0	23:41.0	4:44/K
114	Austin Danhauer	North Posey	224	M	23:42.0	23:42.0	4:44/K
115	Bradley Vaal	Heritage Hills	96	M	23:57.0	23:57.0	4:47/K
116	Ramzi Smith	Central	214	M	24:05.0	24:05.0	4:49/K
117	George Smilijanich	Tecumseh	63	M	24:08.9	24:08.9	4:50/K
118	Colin Englehart	Washington	147	M	24:11.4	24:11.4	4:50/K
119	Shane Stephens	Tecumseh	60	M	24:14.9	24:14.9	4:51/K
120	Justin French	North Posey	226	M	24:17.9	24:17.9	4:51/K
121	Ben Berkhouse	Perry Central	266	M	24:25.2	24:25.2	4:53/K
122	Brendan Stock	Central	216	M	24:26.1	24:26.1	4:53/K
123	Seth Allen	Evansville North	277	M	24:33.9	24:33.9	4:55/K
124	SAM TEMPCO	Memorial	173	M	24:35.0	24:35.0	4:55/K
125	Brant Elpers	North Posey	228	M	24:39.4	24:39.4	4:56/K
126	Payton Buse	Tecumseh	65	M	24:42.4	24:42.4	4:56/K
127	Seth DeWar	Mount Vernon	140	M	24:44.5	24:44.5	4:57/K
128	Camden Lupfer	North Posey	229	M	24:45.5	24:45.5	4:57/K
129	Grant Elpers	Mater Dei	38	M	24:50.9	24:50.9	4:58/K
130	Eli Carie	South Knox	12	M	25:03.2	25:03.2	5:01/K
131	Kenton Hall	South Spencer	314	M	25:04.9	25:04.9	5:01/K
132	Jonathan Earley	South Knox	18	M	25:18.1	25:18.1	5:04/K
133	Nicholas Carter	Mater Dei	43	M	25:25.6	25:25.6	5:05/K
134	Jonathan Hill	Tecumseh	62	M	25:31.5	25:31.5	5:06/K
135	Erik Hunter	Washington	149	M	25:33.7	25:33.7	5:07/K
136	Chris Douglas	South Spencer	315	M	25:35.9	25:35.9	5:07/K
137	Andrew Adams	South Knox	17	M	28:06.6	28:06.6	5:37/K
138	LAITH ABUSHALBACK	Memorial	152	M	28:39.2	28:39.2	5:44/K
139	Jeremiah Rainey	Evansville North	290	M	29:00.6	29:00.6	5:48/K
140	Joe Wolbers	Vincennes Lincoln	115	M	29:23.1	29:23.1	5:53/K
141	Logan Webb	Washington	146	M	29:36.2	29:36.2	5:55/K
142	Brandon Heck	Boonville	235	M	30:01.6	30:01.6	6:00/K
143	Grant Baxter	Washington	142	M	30:11.3	30:11.3	6:02/K
144	Sam Ottway	Evansville North	288	M	31:15.0	31:15.0	6:15/K
145	ZACH DEEG	Memorial	157	M	31:16.0	31:16.0	6:15/K
146	Michael Goede	North Posey	231	M	35:02.0	35:02.0	7:00/K
147	Dayne Morris	North Posey	230	M	36:32.0	36:32.0	7:18/K